This is the latest recevied weather packets stored in our database for station/object CE4ERM-13. If no packets are shown the sender has not sent any weather packets the latest 10 day(s).
| Time | Temp. | Humidity | Pressure | Rain* | Wind** | Luminosity | Snow |
|---|---|---|---|---|---|---|---|
| 1777209676 | 18.33° C | 41% | 1022.4 hPa | - | - | - | - |
| 1777209526 | 10.56° C | 59% | 1022.6 hPa | - | - | - | - |
| 1777209075 | 17.22° C | 43% | 1021.8 hPa | - | - | - | - |
| 1777208475 | 17.22° C | 43% | 1023.9 hPa | - | - | - | - |
| 1777208319 | 10° C | 60% | 1022.8 hPa | - | - | - | - |
| 1777207719 | 10° C | 60% | 1022.2 hPa | - | - | - | - |
| 1777207117 | 9.44° C | 61% | 1022.5 hPa | - | - | - | - |
| 1777206518 | 9.44° C | 60% | 1022.5 hPa | - | - | - | - |
| 1777205918 | 8.89° C | 60% | 1023.3 hPa | - | - | - | - |
| 1777205473 | 15.56° C | 43% | 1021.4 hPa | - | - | - | - |
| 1777205318 | 8.89° C | 59% | 1024.3 hPa | - | - | - | - |
| 1777204718 | 8.89° C | 59% | 1023 hPa | - | - | - | - |
| 1777203672 | 14.44° C | 44% | 1021.9 hPa | - | - | - | - |
| 1777203518 | 8.33° C | 59% | 1023.5 hPa | - | - | - | - |
| 1777202918 | 8.33° C | 59% | 1022.8 hPa | - | - | - | - |
| 1777202471 | 14.44° C | 44% | 1022 hPa | - | - | - | - |
| 1777201871 | 14.44° C | 44% | 1022 hPa | - | - | - | - |
| 1777201718 | 8.33° C | 57% | 1022.9 hPa | - | - | - | - |
| 1777201118 | 8.33° C | 58% | 1021.6 hPa | - | - | - | - |
| 1777200671 | 14.44° C | 44% | 1021.7 hPa | - | - | - | - |
| 1777200518 | 8.89° C | 58% | 1022.1 hPa | - | - | - | - |
| 1777200071 | 12.22° C | 50% | 1022.3 hPa | - | - | - | - |
| 1777199317 | 8.89° C | 58% | 1022.5 hPa | - | - | - | - |
| 1777198717 | 8.89° C | 57% | 1022.6 hPa | - | - | - | - |
| 1777198270 | 15° C | 43% | 1021.9 hPa | - | - | - | - |
* Rain since midnight (hover to see other rain measurements)
** Current wind speed in m/s (hover to see current wind gust speed)